createdAt,value
2022-09-15T00:01:06.825Z,15.70
2022-09-15T00:03:35.181Z,15.70
2022-09-15T00:06:03.707Z,15.70
2022-09-15T00:08:32.252Z,15.70
2022-09-15T00:11:07.200Z,15.70
2022-09-15T00:13:37.425Z,15.70
2022-09-15T00:16:06.242Z,15.80
2022-09-15T00:18:34.521Z,15.80
2022-09-15T00:21:06.639Z,15.80
2022-09-15T00:23:34.628Z,15.80
2022-09-15T00:26:08.937Z,15.80
2022-09-15T00:28:38.460Z,15.70
2022-09-15T00:31:08.124Z,15.70
2022-09-15T00:33:36.756Z,15.60
2022-09-15T00:36:06.749Z,15.50
2022-09-15T00:38:35.961Z,15.40
2022-09-15T00:41:05.396Z,15.30
2022-09-15T00:43:47.144Z,15.30
2022-09-15T00:46:16.189Z,15.30
2022-09-15T00:48:48.190Z,15.30
2022-09-15T00:51:20.586Z,15.30
2022-09-15T00:53:49.490Z,15.30
2022-09-15T00:56:19.645Z,15.30
2022-09-15T00:58:53.957Z,15.30
2022-09-15T01:01:21.963Z,15.30
2022-09-15T01:03:49.862Z,15.30
2022-09-15T01:06:24.522Z,15.30
2022-09-15T01:09:02.946Z,15.30
2022-09-15T01:11:31.190Z,15.40
2022-09-15T01:14:00.456Z,15.40
2022-09-15T01:16:39.072Z,15.40
2022-09-15T01:19:23.330Z,15.40
2022-09-15T01:21:58.851Z,15.40
2022-09-15T01:24:52.492Z,15.40
2022-09-15T01:27:42.453Z,15.40
2022-09-15T01:30:14.997Z,15.40
2022-09-15T01:33:05.326Z,15.40
2022-09-15T01:35:51.520Z,15.50
2022-09-15T01:38:31.306Z,15.50
2022-09-15T01:41:05.253Z,15.50
2022-09-15T01:43:35.700Z,15.50
2022-09-15T01:46:06.061Z,15.50
2022-09-15T01:48:36.791Z,15.50
2022-09-15T01:51:06.602Z,15.50
2022-09-15T01:53:35.258Z,15.60
2022-09-15T01:56:07.873Z,15.60
2022-09-15T01:58:36.136Z,15.50
2022-09-15T02:01:09.502Z,15.50
2022-09-15T02:03:44.809Z,15.50
2022-09-15T02:06:19.180Z,15.50
2022-09-15T02:08:52.980Z,15.50
2022-09-15T02:11:22.890Z,15.50
2022-09-15T02:13:59.767Z,15.40
2022-09-15T02:19:41.218Z,15.50
2022-09-15T02:22:13.334Z,15.60
2022-09-15T02:24:45.748Z,15.60
2022-09-15T02:27:18.804Z,15.60
2022-09-15T02:29:50.307Z,15.60
2022-09-15T02:32:21.076Z,15.60
2022-09-15T02:34:52.690Z,15.60
2022-09-15T02:37:22.912Z,15.60
2022-09-15T02:39:56.674Z,15.50
2022-09-15T02:42:25.725Z,15.60
2022-09-15T02:44:53.834Z,15.60
2022-09-15T02:47:25.627Z,15.60
2022-09-15T02:49:57.169Z,15.60
2022-09-15T02:52:28.172Z,15.40
2022-09-15T02:54:56.005Z,15.30
2022-09-15T02:57:24.143Z,15.30
2022-09-15T03:00:09.713Z,15.30
2022-09-15T03:02:37.641Z,15.20
2022-09-15T03:05:08.427Z,15.10
2022-09-15T03:07:37.611Z,15.10
2022-09-15T03:10:06.484Z,15.00
2022-09-15T03:12:38.437Z,15.00
2022-09-15T03:15:07.627Z,15.00
2022-09-15T03:17:36.293Z,14.90
2022-09-15T03:20:07.276Z,14.90
2022-09-15T03:22:36.030Z,14.90
2022-09-15T03:25:04.922Z,15.00
2022-09-15T03:27:33.103Z,15.10
2022-09-15T03:30:01.577Z,15.10
2022-09-15T03:32:29.898Z,15.10
2022-09-15T03:34:58.659Z,15.10
2022-09-15T03:37:28.425Z,15.20
2022-09-15T03:39:56.848Z,15.20
2022-09-15T03:42:24.761Z,15.20
2022-09-15T03:44:53.006Z,15.20
2022-09-15T03:47:20.874Z,15.20
2022-09-15T03:49:49.029Z,15.20
2022-09-15T03:52:17.064Z,15.20
2022-09-15T03:54:49.092Z,15.20
2022-09-15T03:57:17.281Z,15.10
2022-09-15T03:59:45.390Z,15.10
2022-09-15T04:02:14.923Z,15.10
2022-09-15T04:04:43.002Z,15.00
2022-09-15T04:07:11.035Z,15.00
2022-09-15T04:09:38.951Z,15.00
2022-09-15T04:12:11.110Z,15.00
2022-09-15T04:14:39.432Z,15.00
2022-09-15T04:17:07.733Z,15.00
2022-09-15T04:19:35.704Z,15.00
2022-09-15T04:22:04.075Z,15.00
2022-09-15T04:24:32.035Z,14.90
2022-09-15T04:26:59.980Z,14.90
2022-09-15T04:29:29.253Z,15.00
2022-09-15T04:31:57.089Z,15.00
2022-09-15T04:34:25.378Z,15.00
2022-09-15T04:36:53.353Z,15.00
2022-09-15T04:39:21.150Z,15.00
2022-09-15T04:41:50.962Z,15.00
2022-09-15T04:44:21.901Z,15.00
2022-09-15T04:46:51.387Z,14.90
2022-09-15T04:49:19.492Z,14.90
2022-09-15T04:51:47.498Z,14.90
2022-09-15T04:54:17.449Z,14.90
2022-09-15T04:56:48.287Z,15.00
2022-09-15T04:59:27.700Z,15.00
2022-09-15T05:01:57.243Z,15.00
2022-09-15T05:04:25.251Z,15.00
2022-09-15T05:06:56.800Z,15.10
2022-09-15T05:09:25.296Z,15.20
2022-09-15T05:11:53.599Z,15.10
2022-09-15T05:14:21.901Z,15.10
2022-09-15T05:16:49.822Z,15.10
2022-09-15T05:19:21.764Z,15.10
2022-09-15T05:21:49.655Z,15.10
2022-09-15T05:24:17.408Z,15.10
2022-09-15T05:26:45.433Z,15.10
2022-09-15T05:29:13.778Z,15.20
2022-09-15T05:31:41.826Z,15.20
2022-09-15T05:34:11.472Z,15.20
2022-09-15T05:36:44.115Z,15.30
2022-09-15T05:39:12.285Z,15.30
2022-09-15T05:41:42.363Z,15.30
2022-09-15T05:44:12.233Z,15.30
2022-09-15T05:46:40.320Z,15.30
2022-09-15T05:49:08.829Z,15.30
2022-09-15T05:51:37.299Z,15.30
2022-09-15T05:54:06.869Z,15.20
2022-09-15T05:56:35.165Z,15.20
2022-09-15T05:59:03.577Z,15.10
2022-09-15T06:01:32.028Z,14.90
2022-09-15T06:03:59.986Z,14.80
2022-09-15T06:06:28.268Z,14.80
2022-09-15T06:08:59.453Z,14.70
2022-09-15T06:11:30.700Z,14.70
2022-09-15T06:14:00.392Z,14.70
2022-09-15T06:16:28.443Z,14.80
2022-09-15T06:18:56.336Z,14.90
2022-09-15T06:21:25.847Z,15.00
2022-09-15T06:23:55.147Z,15.10
2022-09-15T06:26:23.593Z,15.20
2022-09-15T06:28:54.736Z,15.20
2022-09-15T06:31:23.376Z,15.30
2022-09-15T06:33:54.083Z,15.30
2022-09-15T06:36:24.528Z,15.40
2022-09-15T06:38:52.585Z,15.60
2022-09-15T06:41:20.409Z,15.70
2022-09-15T06:43:51.132Z,15.80
2022-09-15T06:46:23.347Z,15.90
2022-09-15T06:48:53.282Z,15.90
2022-09-15T06:51:23.378Z,15.80
2022-09-15T06:53:55.158Z,15.80
2022-09-15T06:56:24.725Z,15.70
2022-09-15T06:58:55.959Z,15.60
2022-09-15T07:01:27.105Z,15.40
2022-09-15T07:03:58.550Z,15.30
2022-09-15T07:06:29.288Z,15.20
2022-09-15T07:09:13.980Z,15.20
2022-09-15T07:11:42.427Z,15.30
2022-09-15T07:18:33.070Z,15.40
2022-09-15T07:21:29.341Z,15.40
2022-09-15T07:25:16.847Z,15.50
2022-09-15T07:28:08.534Z,15.50
2022-09-15T07:30:39.286Z,15.70
2022-09-15T07:33:08.586Z,15.80
2022-09-15T07:35:42.890Z,15.90
2022-09-15T07:38:10.881Z,15.90
2022-09-15T07:40:41.267Z,15.90
2022-09-15T07:43:09.386Z,15.90
2022-09-15T07:45:37.658Z,15.80
2022-09-15T07:48:06.361Z,15.70
2022-09-15T07:50:34.548Z,15.70
2022-09-15T07:53:04.072Z,15.70
2022-09-15T07:55:32.894Z,15.80
2022-09-15T07:58:01.457Z,15.80
2022-09-15T08:00:29.608Z,15.80
2022-09-15T08:02:58.074Z,15.90
2022-09-15T08:05:37.350Z,16.00
2022-09-15T08:08:08.064Z,15.90
2022-09-15T08:10:39.187Z,16.00
2022-09-15T08:13:07.210Z,16.00
2022-09-15T08:15:37.785Z,16.00
2022-09-15T08:18:06.234Z,16.00
2022-09-15T08:20:34.724Z,16.10
2022-09-15T08:23:02.574Z,16.10
2022-09-15T08:25:31.843Z,16.20
2022-09-15T08:28:00.042Z,16.30
2022-09-15T08:30:28.292Z,16.40
2022-09-15T08:32:56.222Z,16.50
2022-09-15T08:35:24.095Z,16.80
2022-09-15T08:37:54.803Z,17.00
2022-09-15T08:40:27.090Z,17.30
2022-09-15T08:43:00.421Z,17.40
2022-09-15T08:45:35.163Z,17.50
2022-09-15T08:48:07.461Z,17.50
2022-09-15T08:50:40.635Z,17.50
2022-09-15T08:53:13.151Z,17.50
2022-09-15T08:55:48.490Z,17.60
2022-09-15T08:58:21.318Z,17.60
2022-09-15T09:00:57.389Z,17.80
2022-09-15T09:03:46.728Z,17.90
2022-09-15T09:06:23.260Z,17.90
2022-09-15T09:09:05.957Z,18.10
2022-09-15T09:11:48.830Z,18.10
2022-09-15T09:14:25.997Z,18.10
2022-09-15T09:17:32.080Z,18.00
2022-09-15T09:20:22.607Z,18.10
2022-09-15T09:22:55.066Z,18.20
2022-09-15T09:25:28.383Z,18.30
2022-09-15T09:27:59.266Z,18.40
2022-09-15T09:30:32.179Z,18.40
2022-09-15T09:33:14.219Z,18.20
2022-09-15T09:35:46.706Z,18.10
2022-09-15T09:38:21.407Z,18.00
2022-09-15T09:40:50.501Z,17.90
2022-09-15T09:43:18.566Z,17.80
2022-09-15T09:46:03.969Z,17.50
2022-09-15T09:48:32.628Z,17.10
2022-09-15T09:51:00.765Z,16.50
2022-09-15T09:53:31.100Z,16.10
2022-09-15T09:56:16.999Z,15.80
2022-09-15T09:58:46.116Z,15.50
2022-09-15T10:01:24.794Z,15.40
2022-09-15T10:04:13.471Z,15.30
2022-09-15T10:06:44.965Z,15.30
2022-09-15T10:09:18.147Z,15.30
2022-09-15T10:11:48.480Z,15.30
2022-09-15T10:14:22.641Z,15.30
2022-09-15T10:17:08.278Z,15.30
2022-09-15T10:19:45.407Z,15.30
2022-09-15T10:22:27.019Z,15.30
2022-09-15T10:24:55.319Z,15.40
2022-09-15T10:27:31.627Z,15.50
2022-09-15T10:30:13.377Z,15.60
2022-09-15T10:32:50.193Z,15.70
2022-09-15T10:35:20.454Z,15.90
2022-09-15T10:41:57.687Z,16.10
2022-09-15T10:44:37.029Z,16.10
2022-09-15T10:47:23.237Z,16.00
2022-09-15T10:50:06.052Z,16.00
2022-09-15T10:52:43.662Z,16.00
2022-09-15T10:55:42.503Z,16.10
2022-09-15T10:58:40.946Z,16.20
2022-09-15T11:01:32.203Z,16.20
2022-09-15T11:04:13.511Z,16.30
2022-09-15T11:06:48.900Z,16.40
2022-09-15T11:09:23.374Z,16.40
2022-09-15T11:12:05.872Z,16.50
2022-09-15T11:14:45.747Z,16.60
2022-09-15T11:17:36.714Z,16.80
2022-09-15T11:20:20.326Z,17.20
2022-09-15T11:22:54.936Z,17.50
2022-09-15T11:25:27.337Z,17.80
2022-09-15T11:28:04.745Z,17.80
2022-09-15T11:30:36.918Z,17.40
2022-09-15T11:33:07.959Z,16.60
2022-09-15T11:35:45.926Z,15.90
2022-09-15T11:38:29.352Z,15.40
2022-09-15T11:41:11.224Z,15.10
2022-09-15T11:43:50.455Z,14.80
2022-09-15T11:46:42.640Z,14.50
2022-09-15T11:49:37.756Z,14.40
2022-09-15T11:52:22.846Z,14.30
2022-09-15T11:55:12.466Z,14.30
2022-09-15T11:57:46.856Z,14.30
2022-09-15T12:00:16.956Z,14.30
2022-09-15T12:02:51.398Z,14.30
2022-09-15T12:05:25.851Z,14.40
2022-09-15T12:08:02.065Z,14.50
2022-09-15T12:10:35.042Z,14.60
2022-09-15T12:13:03.721Z,14.70
2022-09-15T12:15:32.380Z,14.80
2022-09-15T12:18:34.294Z,14.90
2022-09-15T12:21:05.501Z,15.10
2022-09-15T12:23:39.120Z,15.40
2022-09-15T12:26:16.365Z,15.70
2022-09-15T12:28:59.260Z,15.90
2022-09-15T12:31:33.531Z,16.00
2022-09-15T12:34:03.508Z,16.00
2022-09-15T12:36:41.086Z,16.00
2022-09-15T12:39:25.406Z,16.10
2022-09-15T12:41:57.245Z,16.30
2022-09-15T12:44:33.041Z,16.40
2022-09-15T12:47:02.879Z,16.50
2022-09-15T12:49:34.295Z,16.60
2022-09-15T12:52:07.853Z,16.70
2022-09-15T12:54:38.547Z,16.70
2022-09-15T12:57:16.621Z,16.90
2022-09-15T12:59:44.616Z,17.10
2022-09-15T13:02:43.540Z,17.40
2022-09-15T13:05:13.004Z,17.70
2022-09-15T13:07:56.533Z,18.00
2022-09-15T13:10:34.273Z,18.10
2022-09-15T13:13:15.403Z,18.40
2022-09-15T13:15:47.647Z,18.60
2022-09-15T13:18:16.992Z,18.60
2022-09-15T13:20:53.056Z,18.70
2022-09-15T13:23:24.237Z,18.80
2022-09-15T13:25:56.603Z,18.80
2022-09-15T13:28:28.698Z,18.60
2022-09-15T13:31:17.413Z,18.30
2022-09-15T13:40:27.209Z,16.90
2022-09-15T13:43:18.360Z,16.40
2022-09-15T13:45:58.910Z,15.90
2022-09-15T13:48:48.056Z,15.60
2022-09-15T13:51:23.599Z,15.40
2022-09-15T13:53:55.935Z,15.40
2022-09-15T13:56:28.067Z,15.40
2022-09-15T13:59:08.823Z,15.60
2022-09-15T14:01:42.426Z,15.70
2022-09-15T14:04:14.877Z,15.80
2022-09-15T14:06:51.360Z,15.90
2022-09-15T14:09:28.599Z,16.00
2022-09-15T14:12:00.991Z,16.10
2022-09-15T14:14:35.533Z,16.10
2022-09-15T14:17:04.698Z,16.20
2022-09-15T14:19:34.812Z,16.30
2022-09-15T14:22:29.372Z,16.30
2022-09-15T14:24:58.855Z,16.40
2022-09-15T14:27:28.830Z,16.40
2022-09-15T14:29:58.677Z,16.40
2022-09-15T14:32:30.995Z,16.50
2022-09-15T14:35:01.404Z,16.50
2022-09-15T14:37:32.146Z,16.50
2022-09-15T14:40:03.064Z,16.60
2022-09-15T14:42:34.774Z,16.80
2022-09-15T14:48:04.141Z,17.00
2022-09-15T14:50:33.554Z,16.60
2022-09-15T14:53:13.009Z,15.90
2022-09-15T14:56:07.032Z,15.30
2022-09-15T14:58:42.782Z,14.80
2022-09-15T15:01:22.627Z,14.50
2022-09-15T15:04:00.889Z,14.30
2022-09-15T15:06:34.055Z,14.20
2022-09-15T15:09:04.970Z,14.10
2022-09-15T15:11:36.089Z,14.00
2022-09-15T15:14:08.052Z,14.00
2022-09-15T15:16:37.564Z,14.00
2022-09-15T15:19:06.955Z,13.90
2022-09-15T15:21:42.538Z,13.80
2022-09-15T15:24:18.648Z,13.60
2022-09-15T15:26:48.000Z,13.60
2022-09-15T15:29:42.983Z,13.50
2022-09-15T15:32:15.951Z,13.50
2022-09-15T15:35:00.845Z,13.40
2022-09-15T15:37:31.379Z,13.30
2022-09-15T15:40:04.481Z,13.40
2022-09-15T15:42:32.689Z,13.40
2022-09-15T15:45:06.483Z,13.40
2022-09-15T15:47:37.283Z,13.50
2022-09-15T15:50:20.745Z,13.50
2022-09-15T15:52:49.288Z,13.60
2022-09-15T15:55:19.244Z,13.70
2022-09-15T15:57:52.729Z,13.80
2022-09-15T16:00:24.370Z,13.90
2022-09-15T16:02:54.010Z,14.00
2022-09-15T16:05:27.578Z,14.10
2022-09-15T16:07:56.776Z,14.20
2022-09-15T16:10:28.460Z,14.40
2022-09-15T16:12:56.475Z,14.50
2022-09-15T16:15:24.314Z,14.60
2022-09-15T16:17:52.321Z,14.70
2022-09-15T16:20:20.607Z,14.90
2022-09-15T16:22:49.677Z,15.00
2022-09-15T16:25:21.988Z,15.10
2022-09-15T16:27:51.465Z,15.10
2022-09-15T16:30:19.454Z,15.20
2022-09-15T16:32:47.251Z,15.30
2022-09-15T16:35:23.849Z,15.30
2022-09-15T16:37:56.773Z,15.30
2022-09-15T16:40:24.786Z,15.40
2022-09-15T16:43:04.967Z,15.30
2022-09-15T16:45:38.243Z,15.10
2022-09-15T16:48:08.699Z,14.80
2022-09-15T16:50:37.801Z,14.50
2022-09-15T16:53:14.790Z,14.20
2022-09-15T16:55:45.951Z,13.90
2022-09-15T16:58:15.312Z,13.90
2022-09-15T17:00:44.974Z,13.80
2022-09-15T17:03:17.026Z,13.70
2022-09-15T17:05:48.645Z,13.60
2022-09-15T17:08:27.567Z,13.60
2022-09-15T17:10:57.666Z,13.60
2022-09-15T17:13:30.287Z,13.60
2022-09-15T17:15:59.595Z,13.50
2022-09-15T17:18:38.883Z,13.40
2022-09-15T17:21:07.462Z,13.50
2022-09-15T17:23:41.566Z,13.40
2022-09-15T17:26:12.813Z,13.30
2022-09-15T17:28:42.173Z,13.30
2022-09-15T17:31:15.788Z,13.30
2022-09-15T17:33:44.699Z,13.20
2022-09-15T17:36:13.109Z,13.20
2022-09-15T17:38:44.899Z,13.10
2022-09-15T17:41:15.727Z,13.10
2022-09-15T17:43:43.727Z,13.10
2022-09-15T17:46:12.202Z,13.00
2022-09-15T17:48:43.303Z,13.00
2022-09-15T17:51:16.003Z,13.00
2022-09-15T17:53:46.979Z,13.00
2022-09-15T17:56:14.990Z,13.00
2022-09-15T17:58:43.089Z,12.90
2022-09-15T18:01:14.394Z,12.90
2022-09-15T18:03:44.586Z,12.90
2022-09-15T18:06:12.711Z,12.90
2022-09-15T18:08:42.395Z,12.80
2022-09-15T18:11:15.322Z,12.80
2022-09-15T18:13:43.311Z,12.80
2022-09-15T18:16:13.836Z,12.80
2022-09-15T18:18:42.912Z,12.90
2022-09-15T18:21:21.253Z,12.90
2022-09-15T18:23:49.127Z,12.90
2022-09-15T18:26:21.644Z,12.90
2022-09-15T18:28:54.251Z,12.80
2022-09-15T18:31:22.275Z,12.80
2022-09-15T18:33:50.083Z,12.80
2022-09-15T18:36:21.530Z,12.80
2022-09-15T18:38:49.437Z,12.80
2022-09-15T18:41:18.591Z,12.80
2022-09-15T18:43:49.049Z,12.90
2022-09-15T18:46:17.255Z,12.90
2022-09-15T18:48:45.524Z,12.80
2022-09-15T18:51:19.678Z,12.90
2022-09-15T18:53:54.507Z,13.00
2022-09-15T18:56:23.663Z,13.10
2022-09-15T18:58:53.425Z,13.10
2022-09-15T19:01:21.636Z,13.20
2022-09-15T19:03:52.514Z,13.30
2022-09-15T19:06:20.271Z,13.20
2022-09-15T19:08:48.928Z,13.20
2022-09-15T19:11:17.310Z,13.20
2022-09-15T19:13:46.455Z,13.10
2022-09-15T19:16:14.268Z,13.10
2022-09-15T19:18:44.820Z,13.10
2022-09-15T19:21:13.162Z,13.10
2022-09-15T19:23:41.055Z,13.10
2022-09-15T19:26:13.494Z,13.10
2022-09-15T19:28:41.531Z,13.00
2022-09-15T19:31:10.890Z,13.10
2022-09-15T19:33:38.797Z,13.20
2022-09-15T19:36:27.392Z,13.30
2022-09-15T19:38:56.493Z,13.50
2022-09-15T19:41:24.577Z,13.50
2022-09-15T19:43:52.437Z,13.40
2022-09-15T19:46:24.092Z,13.40
2022-09-15T19:48:52.632Z,13.30
2022-09-15T19:51:21.859Z,13.30
2022-09-15T19:53:55.296Z,13.20
2022-09-15T19:56:26.200Z,13.10
2022-09-15T19:58:55.732Z,13.10
2022-09-15T20:01:39.005Z,13.00
2022-09-15T20:04:07.011Z,12.90
2022-09-15T20:06:36.820Z,12.80
2022-09-15T20:09:05.175Z,12.80
2022-09-15T20:11:38.809Z,12.80
2022-09-15T20:14:09.848Z,12.80
2022-09-15T20:16:43.293Z,12.80
2022-09-15T20:19:11.278Z,12.80
2022-09-15T20:21:50.756Z,12.80
2022-09-15T20:24:21.152Z,12.80
2022-09-15T20:26:49.386Z,12.80
2022-09-15T20:29:18.661Z,12.80
2022-09-15T20:31:50.051Z,12.70
2022-09-15T20:34:20.613Z,12.70
2022-09-15T20:36:48.928Z,12.60
2022-09-15T20:39:19.368Z,12.60
2022-09-15T20:41:57.735Z,12.50
2022-09-15T20:44:25.766Z,12.50
2022-09-15T20:46:54.997Z,12.40
2022-09-15T20:49:22.744Z,12.30
2022-09-15T20:51:51.592Z,12.30
2022-09-15T20:54:19.588Z,12.20
2022-09-15T20:56:47.422Z,12.20
2022-09-15T20:59:15.361Z,12.10
2022-09-15T21:01:43.470Z,12.10
2022-09-15T21:04:13.002Z,12.10
2022-09-15T21:06:40.939Z,12.10
2022-09-15T21:09:08.875Z,12.20
2022-09-15T21:11:36.831Z,12.30
2022-09-15T21:14:05.693Z,12.40
2022-09-15T21:16:34.848Z,12.40
2022-09-15T21:19:02.865Z,12.50
2022-09-15T21:21:33.729Z,12.50
2022-09-15T21:24:04.035Z,12.60
2022-09-15T21:26:33.958Z,12.60
2022-09-15T21:29:02.730Z,12.60
2022-09-15T21:31:32.904Z,12.60
2022-09-15T21:34:01.331Z,12.50
2022-09-15T21:36:32.062Z,12.40
2022-09-15T21:39:00.576Z,12.40
2022-09-15T21:41:30.284Z,12.30
2022-09-15T21:43:59.330Z,12.30
2022-09-15T21:46:29.251Z,12.20
2022-09-15T21:48:58.487Z,12.10
2022-09-15T21:51:27.815Z,12.10
2022-09-15T21:53:58.452Z,12.10
2022-09-15T21:56:30.027Z,12.00
2022-09-15T21:58:58.002Z,12.00
2022-09-15T22:01:28.211Z,11.90
2022-09-15T22:03:57.417Z,11.80
2022-09-15T22:06:30.140Z,11.70
2022-09-15T22:09:00.448Z,11.70
2022-09-15T22:11:29.108Z,11.80
2022-09-15T22:13:56.884Z,11.70
2022-09-15T22:16:26.163Z,11.80
2022-09-15T22:18:55.326Z,11.80
2022-09-15T22:21:25.068Z,11.90
2022-09-15T22:23:56.775Z,12.00
2022-09-15T22:26:27.674Z,11.90
2022-09-15T22:28:56.352Z,11.90
2022-09-15T22:31:26.971Z,11.90
2022-09-15T22:33:55.257Z,12.00
2022-09-15T22:36:29.223Z,12.10
2022-09-15T22:39:03.766Z,12.10
2022-09-15T22:41:34.835Z,12.10
2022-09-15T22:44:03.440Z,12.10
2022-09-15T22:46:31.338Z,12.10
2022-09-15T22:48:59.749Z,12.00
2022-09-15T22:51:27.829Z,11.90
2022-09-15T22:53:57.064Z,11.80
2022-09-15T22:56:26.351Z,11.80
2022-09-15T22:58:57.311Z,11.70
2022-09-15T23:01:27.127Z,11.70
2022-09-15T23:03:57.302Z,11.60
2022-09-15T23:06:26.291Z,11.60
2022-09-15T23:08:55.412Z,11.60
2022-09-15T23:11:23.934Z,11.50
2022-09-15T23:13:53.188Z,11.50
2022-09-15T23:16:23.156Z,11.50
2022-09-15T23:18:51.330Z,11.50
2022-09-15T23:21:19.855Z,11.50
2022-09-15T23:23:48.911Z,11.40
2022-09-15T23:26:18.779Z,11.40
2022-09-15T23:28:46.713Z,11.40
2022-09-15T23:31:15.115Z,11.40
2022-09-15T23:33:44.900Z,11.40
2022-09-15T23:36:14.824Z,11.40
2022-09-15T23:38:44.408Z,11.40
2022-09-15T23:41:13.846Z,11.30
2022-09-15T23:43:41.623Z,11.40
2022-09-15T23:46:09.744Z,11.40
2022-09-15T23:48:39.522Z,11.50
2022-09-15T23:51:08.854Z,11.50
2022-09-15T23:53:37.100Z,11.50
2022-09-15T23:56:05.132Z,11.50
2022-09-15T23:58:32.948Z,11.50
